Terminal Aerodrome Forecast
Issued by NWS

Home | Current Version | Previous Version | Text Only | Print | Product List | Glossary On
Versions: 1 2 3 4 5 6 7 8 9 10 11 12 13 14 15 16 17 18 19 20 21 22 23 24 25 26 27 28 29 30 31 32 33 34 35 36 37 38
048
FTUS46 KOTX 040525
TAFCOE
TAF
KCOE 040525Z 0406/0506 19014G20KT P6SM FEW025 BKN070 OVC110
     FM040700 21011KT 6SM -RASN BKN010 OVC020
     FM042000 24015G22KT P6SM SCT050 BKN100
     FM050000 27009KT P6SM FEW100=

USA.gov is the U.S. government's official web portal to all federal, state and local government web resources and services.